sensor_id;sensor_type;location;lat;lon;timestamp;P1;durP1;ratioP1;P2;durP2;ratioP2
21297;SDS011;10808;48.010;11.326;2022-11-10T00:00:06;2.13;;;1.92;;
21297;SDS011;10808;48.010;11.326;2022-11-10T00:02:33;2.17;;;1.98;;
21297;SDS011;10808;48.010;11.326;2022-11-10T00:05:00;1.70;;;1.60;;
21297;SDS011;10808;48.010;11.326;2022-11-10T00:07:26;1.73;;;1.45;;
21297;SDS011;10808;48.010;11.326;2022-11-10T00:09:53;2.50;;;1.40;;
21297;SDS011;10808;48.010;11.326;2022-11-10T00:12:20;2.03;;;1.37;;
21297;SDS011;10808;48.010;11.326;2022-11-10T00:14:46;1.35;;;1.10;;
21297;SDS011;10808;48.010;11.326;2022-11-10T00:17:32;1.27;;;1.10;;
21297;SDS011;10808;48.010;11.326;2022-11-10T00:20:01;3.33;;;1.27;;
21297;SDS011;10808;48.010;11.326;2022-11-10T00:22:27;1.25;;;1.00;;
21297;SDS011;10808;48.010;11.326;2022-11-10T00:24:53;1.30;;;0.90;;
21297;SDS011;10808;48.010;11.326;2022-11-10T00:27:19;1.63;;;1.00;;
21297;SDS011;10808;48.010;11.326;2022-11-10T00:29:45;2.60;;;1.00;;
21297;SDS011;10808;48.010;11.326;2022-11-10T00:32:11;1.43;;;1.07;;
21297;SDS011;10808;48.010;11.326;2022-11-10T00:34:37;1.50;;;1.00;;
21297;SDS011;10808;48.010;11.326;2022-11-10T00:37:04;1.30;;;0.90;;
21297;SDS011;10808;48.010;11.326;2022-11-10T00:39:30;1.70;;;1.00;;
21297;SDS011;10808;48.010;11.326;2022-11-10T00:41:56;0.95;;;0.90;;
21297;SDS011;10808;48.010;11.326;2022-11-10T00:44:22;1.67;;;0.88;;
21297;SDS011;10808;48.010;11.326;2022-11-10T00:46:49;1.00;;;0.80;;
21297;SDS011;10808;48.010;11.326;2022-11-10T00:49:15;0.98;;;0.80;;
21297;SDS011;10808;48.010;11.326;2022-11-10T00:51:41;0.80;;;0.80;;
21297;SDS011;10808;48.010;11.326;2022-11-10T00:54:07;1.80;;;0.90;;
21297;SDS011;10808;48.010;11.326;2022-11-10T00:56:33;0.80;;;0.80;;
21297;SDS011;10808;48.010;11.326;2022-11-10T00:58:59;0.80;;;0.80;;
21297;SDS011;10808;48.010;11.326;2022-11-10T01:01:25;0.90;;;0.75;;
21297;SDS011;10808;48.010;11.326;2022-11-10T01:03:52;0.90;;;0.80;;
21297;SDS011;10808;48.010;11.326;2022-11-10T01:06:19;1.23;;;0.90;;
21297;SDS011;10808;48.010;11.326;2022-11-10T01:08:46;0.90;;;0.90;;
21297;SDS011;10808;48.010;11.326;2022-11-10T01:11:16;0.80;;;0.80;;
21297;SDS011;10808;48.010;11.326;2022-11-10T01:13:45;0.82;;;0.82;;
21297;SDS011;10808;48.010;11.326;2022-11-10T01:16:24;1.33;;;1.00;;
21297;SDS011;10808;48.010;11.326;2022-11-10T01:18:56;2.00;;;1.00;;
21297;SDS011;10808;48.010;11.326;2022-11-10T01:21:24;1.58;;;1.00;;
21297;SDS011;10808;48.010;11.326;2022-11-10T01:23:51;1.25;;;1.00;;
21297;SDS011;10808;48.010;11.326;2022-11-10T01:26:18;1.10;;;1.00;;
21297;SDS011;10808;48.010;11.326;2022-11-10T01:28:52;2.05;;;0.90;;
21297;SDS011;10808;48.010;11.326;2022-11-10T01:31:19;0.80;;;0.80;;
21297;SDS011;10808;48.010;11.326;2022-11-10T01:33:46;1.40;;;0.90;;
21297;SDS011;10808;48.010;11.326;2022-11-10T01:36:13;1.30;;;0.80;;
21297;SDS011;10808;48.010;11.326;2022-11-10T01:38:39;0.90;;;0.80;;
21297;SDS011;10808;48.010;11.326;2022-11-10T01:41:07;1.52;;;0.90;;
21297;SDS011;10808;48.010;11.326;2022-11-10T01:43:35;1.38;;;0.98;;
21297;SDS011;10808;48.010;11.326;2022-11-10T01:51:14;1.20;;;0.90;;
21297;SDS011;10808;48.010;11.326;2022-11-10T01:53:42;1.98;;;0.95;;
21297;SDS011;10808;48.010;11.326;2022-11-10T01:56:11;1.00;;;0.90;;
21297;SDS011;10808;48.010;11.326;2022-11-10T01:58:40;1.60;;;0.90;;
21297;SDS011;10808;48.010;11.326;2022-11-10T02:01:11;0.60;;;0.60;;
21297;SDS011;10808;48.010;11.326;2022-11-10T02:03:43;0.73;;;0.73;;
21297;SDS011;10808;48.010;11.326;2022-11-10T02:06:16;1.10;;;0.68;;
21297;SDS011;10808;48.010;11.326;2022-11-10T02:08:44;0.60;;;0.60;;
21297;SDS011;10808;48.010;11.326;2022-11-10T02:11:12;1.25;;;0.70;;
21297;SDS011;10808;48.010;11.326;2022-11-10T02:13:39;0.60;;;0.60;;
21297;SDS011;10808;48.010;11.326;2022-11-10T02:16:05;0.90;;;0.60;;
21297;SDS011;10808;48.010;11.326;2022-11-10T02:18:32;1.20;;;0.57;;
21297;SDS011;10808;48.010;11.326;2022-11-10T02:20:58;0.80;;;0.70;;
21297;SDS011;10808;48.010;11.326;2022-11-10T02:25:59;1.00;;;0.80;;
21297;SDS011;10808;48.010;11.326;2022-11-10T02:28:26;0.80;;;0.80;;
21297;SDS011;10808;48.010;11.326;2022-11-10T02:30:53;0.85;;;0.80;;
21297;SDS011;10808;48.010;11.326;2022-11-10T02:33:19;1.30;;;0.70;;
21297;SDS011;10808;48.010;11.326;2022-11-10T02:35:45;1.10;;;0.90;;
21297;SDS011;10808;48.010;11.326;2022-11-10T02:38:12;0.70;;;0.70;;
21297;SDS011;10808;48.010;11.326;2022-11-10T02:40:39;0.80;;;0.70;;
21297;SDS011;10808;48.010;11.326;2022-11-10T02:43:06;1.23;;;0.80;;
21297;SDS011;10808;48.010;11.326;2022-11-10T02:45:35;0.98;;;0.90;;
21297;SDS011;10808;48.010;11.326;2022-11-10T02:48:07;1.10;;;0.80;;
21297;SDS011;10808;48.010;11.326;2022-11-10T02:50:33;1.65;;;0.95;;
21297;SDS011;10808;48.010;11.326;2022-11-10T02:52:59;1.10;;;0.85;;
21297;SDS011;10808;48.010;11.326;2022-11-10T02:55:25;1.02;;;0.90;;
21297;SDS011;10808;48.010;11.326;2022-11-10T02:57:51;1.02;;;0.98;;
21297;SDS011;10808;48.010;11.326;2022-11-10T03:00:18;0.80;;;0.80;;
21297;SDS011;10808;48.010;11.326;2022-11-10T03:02:44;0.95;;;0.75;;
21297;SDS011;10808;48.010;11.326;2022-11-10T03:05:10;1.80;;;0.85;;
21297;SDS011;10808;48.010;11.326;2022-11-10T03:07:37;1.55;;;0.90;;
21297;SDS011;10808;48.010;11.326;2022-11-10T03:10:04;2.47;;;1.03;;
21297;SDS011;10808;48.010;11.326;2022-11-10T03:12:31;1.77;;;1.00;;
21297;SDS011;10808;48.010;11.326;2022-11-10T03:14:57;2.20;;;1.00;;
21297;SDS011;10808;48.010;11.326;2022-11-10T03:17:23;2.00;;;0.90;;
21297;SDS011;10808;48.010;11.326;2022-11-10T03:19:49;1.30;;;1.20;;
21297;SDS011;10808;48.010;11.326;2022-11-10T03:22:15;1.80;;;1.00;;
21297;SDS011;10808;48.010;11.326;2022-11-10T03:24:41;1.63;;;1.20;;
21297;SDS011;10808;48.010;11.326;2022-11-10T03:27:08;3.42;;;1.20;;
21297;SDS011;10808;48.010;11.326;2022-11-10T03:29:34;2.22;;;1.30;;
21297;SDS011;10808;48.010;11.326;2022-11-10T03:32:00;2.58;;;1.15;;
21297;SDS011;10808;48.010;11.326;2022-11-10T03:34:26;2.30;;;1.30;;
21297;SDS011;10808;48.010;11.326;2022-11-10T03:36:52;2.08;;;1.25;;
21297;SDS011;10808;48.010;11.326;2022-11-10T03:39:18;1.98;;;1.20;;
21297;SDS011;10808;48.010;11.326;2022-11-10T03:41:44;1.50;;;1.23;;
21297;SDS011;10808;48.010;11.326;2022-11-10T03:44:10;2.63;;;1.50;;
21297;SDS011;10808;48.010;11.326;2022-11-10T03:46:36;5.15;;;2.00;;
21297;SDS011;10808;48.010;11.326;2022-11-10T03:49:02;4.07;;;1.60;;
21297;SDS011;10808;48.010;11.326;2022-11-10T03:51:29;2.75;;;1.70;;
21297;SDS011;10808;48.010;11.326;2022-11-10T03:53:55;2.00;;;1.40;;
21297;SDS011;10808;48.010;11.326;2022-11-10T03:56:21;2.28;;;1.50;;
21297;SDS011;10808;48.010;11.326;2022-11-10T03:58:47;2.67;;;1.50;;
21297;SDS011;10808;48.010;11.326;2022-11-10T04:01:13;2.95;;;1.63;;
21297;SDS011;10808;48.010;11.326;2022-11-10T04:03:40;1.90;;;1.50;;
21297;SDS011;10808;48.010;11.326;2022-11-10T04:06:06;3.45;;;1.70;;
21297;SDS011;10808;48.010;11.326;2022-11-10T04:08:53;4.60;;;1.80;;
21297;SDS011;10808;48.010;11.326;2022-11-10T04:11:28;2.30;;;1.45;;
21297;SDS011;10808;48.010;11.326;2022-11-10T04:14:14;4.55;;;1.60;;
21297;SDS011;10808;48.010;11.326;2022-11-10T04:17:00;3.28;;;1.60;;
21297;SDS011;10808;48.010;11.326;2022-11-10T04:19:26;2.70;;;1.60;;
21297;SDS011;10808;48.010;11.326;2022-11-10T04:21:52;3.37;;;1.70;;
21297;SDS011;10808;48.010;11.326;2022-11-10T04:24:19;2.58;;;1.60;;
21297;SDS011;10808;48.010;11.326;2022-11-10T04:26:45;4.20;;;1.60;;
21297;SDS011;10808;48.010;11.326;2022-11-10T04:29:13;3.20;;;1.60;;
21297;SDS011;10808;48.010;11.326;2022-11-10T04:31:41;3.55;;;1.63;;
21297;SDS011;10808;48.010;11.326;2022-11-10T04:34:08;3.55;;;1.67;;
21297;SDS011;10808;48.010;11.326;2022-11-10T04:36:39;3.15;;;1.83;;
21297;SDS011;10808;48.010;11.326;2022-11-10T04:39:07;3.38;;;1.63;;
21297;SDS011;10808;48.010;11.326;2022-11-10T04:41:34;2.47;;;1.67;;
21297;SDS011;10808;48.010;11.326;2022-11-10T04:44:02;4.50;;;1.75;;
21297;SDS011;10808;48.010;11.326;2022-11-10T04:46:32;2.10;;;1.58;;
21297;SDS011;10808;48.010;11.326;2022-11-10T04:49:00;3.80;;;1.60;;
21297;SDS011;10808;48.010;11.326;2022-11-10T04:51:27;3.50;;;2.07;;
21297;SDS011;10808;48.010;11.326;2022-11-10T04:53:58;5.57;;;2.53;;
21297;SDS011;10808;48.010;11.326;2022-11-10T04:56:25;3.92;;;2.20;;
21297;SDS011;10808;48.010;11.326;2022-11-10T04:58:52;4.15;;;1.98;;
21297;SDS011;10808;48.010;11.326;2022-11-10T05:01:19;2.92;;;1.65;;
21297;SDS011;10808;48.010;11.326;2022-11-10T05:03:48;4.70;;;1.88;;
21297;SDS011;10808;48.010;11.326;2022-11-10T05:06:15;3.22;;;1.80;;
21297;SDS011;10808;48.010;11.326;2022-11-10T05:08:42;3.30;;;1.85;;
21297;SDS011;10808;48.010;11.326;2022-11-10T05:11:09;2.67;;;1.70;;
21297;SDS011;10808;48.010;11.326;2022-11-10T05:13:36;3.30;;;1.85;;
21297;SDS011;10808;48.010;11.326;2022-11-10T05:16:03;5.88;;;2.20;;
21297;SDS011;10808;48.010;11.326;2022-11-10T05:18:30;5.17;;;2.00;;
21297;SDS011;10808;48.010;11.326;2022-11-10T05:20:56;4.63;;;2.00;;
21297;SDS011;10808;48.010;11.326;2022-11-10T05:23:22;3.73;;;1.60;;
21297;SDS011;10808;48.010;11.326;2022-11-10T05:26:07;2.45;;;1.40;;
21297;SDS011;10808;48.010;11.326;2022-11-10T05:28:35;2.10;;;1.40;;
21297;SDS011;10808;48.010;11.326;2022-11-10T05:31:02;4.25;;;1.77;;
21297;SDS011;10808;48.010;11.326;2022-11-10T05:33:29;3.92;;;1.50;;
21297;SDS011;10808;48.010;11.326;2022-11-10T05:35:55;3.40;;;1.65;;
21297;SDS011;10808;48.010;11.326;2022-11-10T05:38:23;5.28;;;2.20;;
21297;SDS011;10808;48.010;11.326;2022-11-10T05:40:50;2.60;;;2.17;;
21297;SDS011;10808;48.010;11.326;2022-11-10T05:43:16;3.65;;;2.13;;
21297;SDS011;10808;48.010;11.326;2022-11-10T05:45:43;2.77;;;2.00;;
21297;SDS011;10808;48.010;11.326;2022-11-10T05:48:10;3.88;;;1.83;;
21297;SDS011;10808;48.010;11.326;2022-11-10T05:50:37;3.20;;;2.08;;
21297;SDS011;10808;48.010;11.326;2022-11-10T05:53:08;3.28;;;2.10;;
21297;SDS011;10808;48.010;11.326;2022-11-10T05:55:34;4.05;;;2.30;;
21297;SDS011;10808;48.010;11.326;2022-11-10T05:58:00;3.50;;;2.20;;
21297;SDS011;10808;48.010;11.326;2022-11-10T06:00:27;4.10;;;2.42;;
21297;SDS011;10808;48.010;11.326;2022-11-10T06:03:04;4.33;;;3.03;;
21297;SDS011;10808;48.010;11.326;2022-11-10T06:05:33;5.00;;;3.30;;
21297;SDS011;10808;48.010;11.326;2022-11-10T06:08:01;5.45;;;3.50;;
21297;SDS011;10808;48.010;11.326;2022-11-10T06:10:28;5.13;;;3.60;;
21297;SDS011;10808;48.010;11.326;2022-11-10T06:12:55;5.25;;;3.50;;
21297;SDS011;10808;48.010;11.326;2022-11-10T06:15:22;7.10;;;4.15;;
21297;SDS011;10808;48.010;11.326;2022-11-10T06:17:48;9.93;;;6.20;;
21297;SDS011;10808;48.010;11.326;2022-11-10T06:20:15;9.25;;;5.30;;
21297;SDS011;10808;48.010;11.326;2022-11-10T06:22:42;9.52;;;7.15;;
21297;SDS011;10808;48.010;11.326;2022-11-10T06:25:08;14.73;;;9.10;;
21297;SDS011;10808;48.010;11.326;2022-11-10T06:27:35;15.32;;;10.23;;
21297;SDS011;10808;48.010;11.326;2022-11-10T06:30:02;17.30;;;10.80;;
21297;SDS011;10808;48.010;11.326;2022-11-10T06:32:28;30.55;;;18.67;;
21297;SDS011;10808;48.010;11.326;2022-11-10T06:34:54;31.47;;;16.97;;
21297;SDS011;10808;48.010;11.326;2022-11-10T06:37:21;31.17;;;17.27;;
21297;SDS011;10808;48.010;11.326;2022-11-10T06:39:47;12.52;;;6.50;;
21297;SDS011;10808;48.010;11.326;2022-11-10T06:42:13;6.88;;;4.55;;
21297;SDS011;10808;48.010;11.326;2022-11-10T06:44:39;4.83;;;3.70;;
21297;SDS011;10808;48.010;11.326;2022-11-10T06:47:05;6.07;;;3.35;;
21297;SDS011;10808;48.010;11.326;2022-11-10T06:49:31;4.60;;;3.53;;
21297;SDS011;10808;48.010;11.326;2022-11-10T06:51:57;5.50;;;3.53;;
21297;SDS011;10808;48.010;11.326;2022-11-10T06:54:24;5.53;;;3.70;;
21297;SDS011;10808;48.010;11.326;2022-11-10T06:56:50;6.82;;;3.95;;
21297;SDS011;10808;48.010;11.326;2022-11-10T06:59:16;7.20;;;3.92;;
21297;SDS011;10808;48.010;11.326;2022-11-10T07:01:42;6.20;;;4.15;;
21297;SDS011;10808;48.010;11.326;2022-11-10T07:04:08;6.20;;;4.50;;
21297;SDS011;10808;48.010;11.326;2022-11-10T07:06:34;5.80;;;4.30;;
21297;SDS011;10808;48.010;11.326;2022-11-10T07:09:00;8.23;;;4.78;;
21297;SDS011;10808;48.010;11.326;2022-11-10T07:11:26;5.53;;;4.38;;
21297;SDS011;10808;48.010;11.326;2022-11-10T07:13:52;6.95;;;4.53;;
21297;SDS011;10808;48.010;11.326;2022-11-10T07:16:18;6.37;;;4.30;;
21297;SDS011;10808;48.010;11.326;2022-11-10T07:18:45;6.25;;;4.78;;
21297;SDS011;10808;48.010;11.326;2022-11-10T07:21:13;6.35;;;4.32;;
21297;SDS011;10808;48.010;11.326;2022-11-10T07:23:39;5.15;;;3.70;;
21297;SDS011;10808;48.010;11.326;2022-11-10T07:26:05;5.67;;;3.73;;
21297;SDS011;10808;48.010;11.326;2022-11-10T07:28:31;6.55;;;3.70;;
21297;SDS011;10808;48.010;11.326;2022-11-10T07:30:59;7.07;;;3.93;;
21297;SDS011;10808;48.010;11.326;2022-11-10T07:33:27;6.70;;;3.70;;
21297;SDS011;10808;48.010;11.326;2022-11-10T07:35:56;5.50;;;3.85;;
21297;SDS011;10808;48.010;11.326;2022-11-10T07:38:24;5.13;;;3.30;;
21297;SDS011;10808;48.010;11.326;2022-11-10T07:40:51;4.45;;;2.72;;
21297;SDS011;10808;48.010;11.326;2022-11-10T07:43:18;5.33;;;2.93;;
21297;SDS011;10808;48.010;11.326;2022-11-10T07:45:45;6.37;;;3.50;;
21297;SDS011;10808;48.010;11.326;2022-11-10T07:48:11;6.95;;;4.35;;
21297;SDS011;10808;48.010;11.326;2022-11-10T07:50:37;5.15;;;3.10;;
21297;SDS011;10808;48.010;11.326;2022-11-10T07:53:25;4.60;;;2.60;;
21297;SDS011;10808;48.010;11.326;2022-11-10T07:55:50;3.80;;;2.40;;
21297;SDS011;10808;48.010;11.326;2022-11-10T07:58:16;2.47;;;2.15;;
21297;SDS011;10808;48.010;11.326;2022-11-10T08:00:44;3.03;;;2.20;;
21297;SDS011;10808;48.010;11.326;2022-11-10T08:03:17;5.68;;;2.30;;
21297;SDS011;10808;48.010;11.326;2022-11-10T08:05:45;5.65;;;2.17;;
21297;SDS011;10808;48.010;11.326;2022-11-10T08:08:12;3.20;;;2.00;;
21297;SDS011;10808;48.010;11.326;2022-11-10T08:10:39;3.53;;;2.17;;
21297;SDS011;10808;48.010;11.326;2022-11-10T08:13:06;4.73;;;2.40;;
21297;SDS011;10808;48.010;11.326;2022-11-10T08:15:34;3.05;;;2.55;;
21297;SDS011;10808;48.010;11.326;2022-11-10T08:18:02;3.38;;;2.10;;
21297;SDS011;10808;48.010;11.326;2022-11-10T08:20:29;4.95;;;2.28;;
21297;SDS011;10808;48.010;11.326;2022-11-10T08:22:56;4.55;;;2.22;;
21297;SDS011;10808;48.010;11.326;2022-11-10T08:25:27;6.38;;;2.58;;
21297;SDS011;10808;48.010;11.326;2022-11-10T08:27:58;5.57;;;1.95;;
21297;SDS011;10808;48.010;11.326;2022-11-10T08:30:25;3.40;;;1.85;;
21297;SDS011;10808;48.010;11.326;2022-11-10T08:32:53;5.13;;;2.08;;
21297;SDS011;10808;48.010;11.326;2022-11-10T08:35:21;3.88;;;1.67;;
21297;SDS011;10808;48.010;11.326;2022-11-10T08:37:48;2.75;;;1.83;;
21297;SDS011;10808;48.010;11.326;2022-11-10T08:40:15;5.10;;;2.10;;
21297;SDS011;10808;48.010;11.326;2022-11-10T08:42:43;4.53;;;1.80;;
21297;SDS011;10808;48.010;11.326;2022-11-10T08:45:09;4.03;;;2.20;;
21297;SDS011;10808;48.010;11.326;2022-11-10T08:47:36;4.07;;;1.85;;
21297;SDS011;10808;48.010;11.326;2022-11-10T08:50:02;4.53;;;1.73;;
21297;SDS011;10808;48.010;11.326;2022-11-10T08:52:29;4.57;;;2.05;;
21297;SDS011;10808;48.010;11.326;2022-11-10T08:54:55;5.30;;;2.03;;
21297;SDS011;10808;48.010;11.326;2022-11-10T08:57:21;3.83;;;2.00;;
21297;SDS011;10808;48.010;11.326;2022-11-10T08:59:47;6.53;;;2.20;;
21297;SDS011;10808;48.010;11.326;2022-11-10T09:02:14;3.95;;;1.90;;
21297;SDS011;10808;48.010;11.326;2022-11-10T09:04:40;3.45;;;1.75;;
21297;SDS011;10808;48.010;11.326;2022-11-10T09:07:06;3.63;;;1.50;;
21297;SDS011;10808;48.010;11.326;2022-11-10T09:09:32;5.40;;;1.98;;
21297;SDS011;10808;48.010;11.326;2022-11-10T09:11:58;6.47;;;1.65;;
21297;SDS011;10808;48.010;11.326;2022-11-10T09:14:24;4.53;;;1.70;;
21297;SDS011;10808;48.010;11.326;2022-11-10T09:16:50;4.60;;;2.10;;
21297;SDS011;10808;48.010;11.326;2022-11-10T09:19:17;5.30;;;2.17;;
21297;SDS011;10808;48.010;11.326;2022-11-10T09:21:43;4.30;;;1.80;;
21297;SDS011;10808;48.010;11.326;2022-11-10T09:24:09;4.25;;;1.83;;
21297;SDS011;10808;48.010;11.326;2022-11-10T09:26:35;3.83;;;1.88;;
21297;SDS011;10808;48.010;11.326;2022-11-10T09:29:01;6.50;;;2.20;;
21297;SDS011;10808;48.010;11.326;2022-11-10T09:31:28;3.70;;;1.87;;
21297;SDS011;10808;48.010;11.326;2022-11-10T09:33:54;4.97;;;2.00;;
21297;SDS011;10808;48.010;11.326;2022-11-10T09:36:20;3.53;;;1.75;;
21297;SDS011;10808;48.010;11.326;2022-11-10T09:38:46;4.65;;;1.70;;
21297;SDS011;10808;48.010;11.326;2022-11-10T09:41:13;5.80;;;1.92;;
21297;SDS011;10808;48.010;11.326;2022-11-10T09:43:41;3.85;;;1.70;;
21297;SDS011;10808;48.010;11.326;2022-11-10T09:46:16;5.90;;;1.88;;
21297;SDS011;10808;48.010;11.326;2022-11-10T09:48:52;6.50;;;2.10;;
21297;SDS011;10808;48.010;11.326;2022-11-10T09:51:29;4.88;;;1.73;;
21297;SDS011;10808;48.010;11.326;2022-11-10T09:54:24;5.22;;;1.80;;
21297;SDS011;10808;48.010;11.326;2022-11-10T09:56:46;5.45;;;1.60;;
21297;SDS011;10808;48.010;11.326;2022-11-10T09:59:16;4.22;;;1.45;;
21297;SDS011;10808;48.010;11.326;2022-11-10T10:01:49;6.20;;;1.60;;
21297;SDS011;10808;48.010;11.326;2022-11-10T10:04:35;4.97;;;1.40;;
21297;SDS011;10808;48.010;11.326;2022-11-10T10:12:39;4.95;;;1.50;;
21297;SDS011;10808;48.010;11.326;2022-11-10T10:15:17;2.72;;;1.40;;
21297;SDS011;10808;48.010;11.326;2022-11-10T10:20:56;3.20;;;1.50;;
21297;SDS011;10808;48.010;11.326;2022-11-10T10:23:36;4.10;;;1.95;;
21297;SDS011;10808;48.010;11.326;2022-11-10T10:26:12;3.50;;;1.50;;
21297;SDS011;10808;48.010;11.326;2022-11-10T10:28:46;4.20;;;1.70;;
21297;SDS011;10808;48.010;11.326;2022-11-10T10:31:19;5.40;;;1.60;;
21297;SDS011;10808;48.010;11.326;2022-11-10T10:33:49;2.53;;;1.80;;
21297;SDS011;10808;48.010;11.326;2022-11-10T10:36:22;4.80;;;1.50;;
21297;SDS011;10808;48.010;11.326;2022-11-10T10:38:58;3.90;;;1.50;;
21297;SDS011;10808;48.010;11.326;2022-11-10T10:41:37;4.47;;;1.75;;
21297;SDS011;10808;48.010;11.326;2022-11-10T10:44:14;2.83;;;1.30;;
21297;SDS011;10808;48.010;11.326;2022-11-10T10:46:58;4.72;;;1.80;;
21297;SDS011;10808;48.010;11.326;2022-11-10T10:49:29;2.80;;;1.27;;
21297;SDS011;10808;48.010;11.326;2022-11-10T10:52:05;3.92;;;1.50;;
21297;SDS011;10808;48.010;11.326;2022-11-10T10:54:36;3.40;;;2.37;;
21297;SDS011;10808;48.010;11.326;2022-11-10T10:59:45;3.88;;;1.40;;
21297;SDS011;10808;48.010;11.326;2022-11-10T11:02:45;2.80;;;1.40;;
21297;SDS011;10808;48.010;11.326;2022-11-10T11:05:08;3.42;;;1.40;;
21297;SDS011;10808;48.010;11.326;2022-11-10T11:07:35;3.22;;;1.50;;
21297;SDS011;10808;48.010;11.326;2022-11-10T11:10:01;2.75;;;1.40;;
21297;SDS011;10808;48.010;11.326;2022-11-10T11:12:28;6.13;;;1.70;;
21297;SDS011;10808;48.010;11.326;2022-11-10T11:17:59;2.58;;;1.42;;
21297;SDS011;10808;48.010;11.326;2022-11-10T11:20:39;3.38;;;1.50;;
21297;SDS011;10808;48.010;11.326;2022-11-10T11:23:22;5.18;;;2.30;;
21297;SDS011;10808;48.010;11.326;2022-11-10T11:26:08;4.95;;;2.92;;
21297;SDS011;10808;48.010;11.326;2022-11-10T11:31:40;2.97;;;1.40;;
21297;SDS011;10808;48.010;11.326;2022-11-10T11:34:42;6.10;;;2.20;;
21297;SDS011;10808;48.010;11.326;2022-11-10T11:37:26;4.77;;;1.60;;
21297;SDS011;10808;48.010;11.326;2022-11-10T11:40:18;3.35;;;1.10;;
21297;SDS011;10808;48.010;11.326;2022-11-10T11:43:18;2.85;;;1.15;;
21297;SDS011;10808;48.010;11.326;2022-11-10T11:48:56;8.70;;;4.60;;
21297;SDS011;10808;48.010;11.326;2022-11-10T11:56:30;4.30;;;1.20;;
21297;SDS011;10808;48.010;11.326;2022-11-10T11:59:07;2.90;;;1.20;;
21297;SDS011;10808;48.010;11.326;2022-11-10T12:12:19;3.47;;;1.30;;
21297;SDS011;10808;48.010;11.326;2022-11-10T12:15:13;4.40;;;1.20;;
21297;SDS011;10808;48.010;11.326;2022-11-10T12:23:33;2.80;;;1.10;;
21297;SDS011;10808;48.010;11.326;2022-11-10T12:29:25;3.28;;;1.10;;
21297;SDS011;10808;48.010;11.326;2022-11-10T12:32:00;3.33;;;1.10;;
21297;SDS011;10808;48.010;11.326;2022-11-10T12:34:33;2.60;;;0.90;;
21297;SDS011;10808;48.010;11.326;2022-11-10T12:42:40;2.70;;;1.25;;
21297;SDS011;10808;48.010;11.326;2022-11-10T12:45:19;4.07;;;1.37;;
21297;SDS011;10808;48.010;11.326;2022-11-10T12:47:50;2.83;;;0.90;;
21297;SDS011;10808;48.010;11.326;2022-11-10T12:53:19;3.65;;;0.95;;
21297;SDS011;10808;48.010;11.326;2022-11-10T12:55:54;3.00;;;1.10;;
21297;SDS011;10808;48.010;11.326;2022-11-10T12:58:26;2.40;;;1.03;;
21297;SDS011;10808;48.010;11.326;2022-11-10T13:00:54;2.72;;;1.00;;
21297;SDS011;10808;48.010;11.326;2022-11-10T13:03:24;2.72;;;1.20;;
21297;SDS011;10808;48.010;11.326;2022-11-10T13:06:05;4.13;;;1.23;;
21297;SDS011;10808;48.010;11.326;2022-11-10T13:08:47;3.45;;;1.40;;
21297;SDS011;10808;48.010;11.326;2022-11-10T13:19:08;1.90;;;1.10;;
21297;SDS011;10808;48.010;11.326;2022-11-10T13:24:29;2.90;;;1.23;;
21297;SDS011;10808;48.010;11.326;2022-11-10T13:26:58;2.92;;;1.00;;
21297;SDS011;10808;48.010;11.326;2022-11-10T13:34:40;2.60;;;1.00;;
21297;SDS011;10808;48.010;11.326;2022-11-10T13:45:31;2.88;;;1.20;;
21297;SDS011;10808;48.010;11.326;2022-11-10T13:58:58;3.40;;;1.10;;
21297;SDS011;10808;48.010;11.326;2022-11-10T14:01:27;3.85;;;1.20;;
21297;SDS011;10808;48.010;11.326;2022-11-10T14:03:58;3.22;;;1.10;;
21297;SDS011;10808;48.010;11.326;2022-11-10T14:06:39;2.00;;;1.03;;
21297;SDS011;10808;48.010;11.326;2022-11-10T14:11:42;2.83;;;1.10;;
21297;SDS011;10808;48.010;11.326;2022-11-10T14:14:23;3.92;;;1.10;;
21297;SDS011;10808;48.010;11.326;2022-11-10T14:18:01;3.30;;;1.20;;
21297;SDS011;10808;48.010;11.326;2022-11-10T14:20:25;4.30;;;1.30;;
21297;SDS011;10808;48.010;11.326;2022-11-10T14:22:56;3.38;;;1.40;;
21297;SDS011;10808;48.010;11.326;2022-11-10T14:25:30;3.08;;;1.10;;
21297;SDS011;10808;48.010;11.326;2022-11-10T14:28:02;2.55;;;1.00;;
21297;SDS011;10808;48.010;11.326;2022-11-10T14:30:41;2.53;;;1.10;;
21297;SDS011;10808;48.010;11.326;2022-11-10T14:33:16;3.08;;;1.10;;
21297;SDS011;10808;48.010;11.326;2022-11-10T14:35:49;3.20;;;1.15;;
21297;SDS011;10808;48.010;11.326;2022-11-10T14:38:24;2.72;;;1.17;;
21297;SDS011;10808;48.010;11.326;2022-11-10T14:40:53;3.47;;;1.35;;
21297;SDS011;10808;48.010;11.326;2022-11-10T14:45:53;4.72;;;1.30;;
21297;SDS011;10808;48.010;11.326;2022-11-10T14:48:22;3.70;;;1.30;;
21297;SDS011;10808;48.010;11.326;2022-11-10T14:50:52;4.00;;;1.13;;
21297;SDS011;10808;48.010;11.326;2022-11-10T14:53:26;6.80;;;1.20;;
21297;SDS011;10808;48.010;11.326;2022-11-10T14:56:04;2.47;;;1.00;;
21297;SDS011;10808;48.010;11.326;2022-11-10T14:58:38;2.83;;;1.10;;
21297;SDS011;10808;48.010;11.326;2022-11-10T15:01:06;4.70;;;1.30;;
21297;SDS011;10808;48.010;11.326;2022-11-10T15:03:52;3.83;;;1.30;;
21297;SDS011;10808;48.010;11.326;2022-11-10T15:06:19;4.40;;;1.33;;
21297;SDS011;10808;48.010;11.326;2022-11-10T15:08:46;3.72;;;2.00;;
21297;SDS011;10808;48.010;11.326;2022-11-10T15:17:04;4.30;;;2.00;;
21297;SDS011;10808;48.010;11.326;2022-11-10T15:24:41;5.22;;;2.25;;
21297;SDS011;10808;48.010;11.326;2022-11-10T15:27:30;3.70;;;1.80;;
21297;SDS011;10808;48.010;11.326;2022-11-10T15:29:57;3.50;;;1.80;;
21297;SDS011;10808;48.010;11.326;2022-11-10T15:32:33;5.38;;;2.00;;
21297;SDS011;10808;48.010;11.326;2022-11-10T15:35:09;5.80;;;2.00;;
21297;SDS011;10808;48.010;11.326;2022-11-10T15:40:34;4.33;;;1.70;;
21297;SDS011;10808;48.010;11.326;2022-11-10T15:43:09;4.30;;;1.73;;
21297;SDS011;10808;48.010;11.326;2022-11-10T15:45:42;4.55;;;2.85;;
21297;SDS011;10808;48.010;11.326;2022-11-10T15:48:10;6.10;;;2.97;;
21297;SDS011;10808;48.010;11.326;2022-11-10T15:50:39;5.18;;;2.40;;
21297;SDS011;10808;48.010;11.326;2022-11-10T15:53:10;7.05;;;2.50;;
21297;SDS011;10808;48.010;11.326;2022-11-10T15:55:40;4.07;;;2.30;;
21297;SDS011;10808;48.010;11.326;2022-11-10T15:58:11;5.93;;;2.60;;
21297;SDS011;10808;48.010;11.326;2022-11-10T16:00:42;7.60;;;3.22;;
21297;SDS011;10808;48.010;11.326;2022-11-10T16:03:09;8.40;;;4.15;;
21297;SDS011;10808;48.010;11.326;2022-11-10T16:05:39;12.75;;;4.78;;
21297;SDS011;10808;48.010;11.326;2022-11-10T16:08:10;17.92;;;8.18;;
21297;SDS011;10808;48.010;11.326;2022-11-10T16:10:39;15.00;;;9.38;;
21297;SDS011;10808;48.010;11.326;2022-11-10T16:13:10;23.25;;;14.77;;
21297;SDS011;10808;48.010;11.326;2022-11-10T16:15:39;21.03;;;14.23;;
21297;SDS011;10808;48.010;11.326;2022-11-10T16:18:14;21.10;;;13.27;;
21297;SDS011;10808;48.010;11.326;2022-11-10T16:20:41;20.95;;;12.73;;
21297;SDS011;10808;48.010;11.326;2022-11-10T16:23:08;18.63;;;11.93;;
21297;SDS011;10808;48.010;11.326;2022-11-10T16:25:34;17.63;;;11.50;;
21297;SDS011;10808;48.010;11.326;2022-11-10T16:28:01;18.65;;;11.98;;
21297;SDS011;10808;48.010;11.326;2022-11-10T16:30:32;17.70;;;11.75;;
21297;SDS011;10808;48.010;11.326;2022-11-10T16:32:58;15.57;;;11.15;;
21297;SDS011;10808;48.010;11.326;2022-11-10T16:35:25;17.02;;;11.23;;
21297;SDS011;10808;48.010;11.326;2022-11-10T16:37:51;17.73;;;11.45;;
21297;SDS011;10808;48.010;11.326;2022-11-10T16:40:18;14.07;;;10.32;;
21297;SDS011;10808;48.010;11.326;2022-11-10T16:42:46;13.98;;;10.50;;